sensor_id;sensor_type;location;lat;lon;timestamp;temperature;humidity
37658;DHT22;23500;53.268;8.308;2023-04-03T00:00:11;13.30;69.50
37658;DHT22;23500;53.268;8.308;2023-04-03T00:02:37;13.30;70.00
37658;DHT22;23500;53.268;8.308;2023-04-03T00:05:03;13.30;69.50
37658;DHT22;23500;53.268;8.308;2023-04-03T00:07:30;13.30;69.70
37658;DHT22;23500;53.268;8.308;2023-04-03T00:09:55;13.30;70.10
37658;DHT22;23500;53.268;8.308;2023-04-03T00:12:21;13.30;70.20
37658;DHT22;23500;53.268;8.308;2023-04-03T00:14:47;13.30;70.40
37658;DHT22;23500;53.268;8.308;2023-04-03T00:17:12;13.30;70.20
37658;DHT22;23500;53.268;8.308;2023-04-03T00:19:38;13.30;70.50
37658;DHT22;23500;53.268;8.308;2023-04-03T00:22:03;13.30;70.50
37658;DHT22;23500;53.268;8.308;2023-04-03T00:24:29;13.30;70.70
37658;DHT22;23500;53.268;8.308;2023-04-03T00:26:55;13.30;70.90
37658;DHT22;23500;53.268;8.308;2023-04-03T00:29:21;13.30;70.90
37658;DHT22;23500;53.268;8.308;2023-04-03T00:31:46;13.30;70.80
37658;DHT22;23500;53.268;8.308;2023-04-03T00:34:12;13.30;71.10
37658;DHT22;23500;53.268;8.308;2023-04-03T00:36:37;13.30;71.20
37658;DHT22;23500;53.268;8.308;2023-04-03T00:39:03;13.30;71.10
37658;DHT22;23500;53.268;8.308;2023-04-03T00:41:29;13.30;71.20
37658;DHT22;23500;53.268;8.308;2023-04-03T00:43:54;13.30;71.00
37658;DHT22;23500;53.268;8.308;2023-04-03T00:46:20;13.30;71.10
37658;DHT22;23500;53.268;8.308;2023-04-03T00:48:48;13.30;71.10
37658;DHT22;23500;53.268;8.308;2023-04-03T00:51:24;13.30;71.00
37658;DHT22;23500;53.268;8.308;2023-04-03T00:53:54;13.30;71.40
37658;DHT22;23500;53.268;8.308;2023-04-03T00:56:23;13.30;71.00
37658;DHT22;23500;53.268;8.308;2023-04-03T00:58:59;13.30;70.90
37658;DHT22;23500;53.268;8.308;2023-04-03T01:01:27;13.20;71.00
37658;DHT22;23500;53.268;8.308;2023-04-03T01:03:53;13.30;71.00
37658;DHT22;23500;53.268;8.308;2023-04-03T01:06:28;13.20;70.90
37658;DHT22;23500;53.268;8.308;2023-04-03T01:08:56;13.20;71.50
37658;DHT22;23500;53.268;8.308;2023-04-03T01:11:22;13.20;70.90
37658;DHT22;23500;53.268;8.308;2023-04-03T01:13:48;13.20;71.00
37658;DHT22;23500;53.268;8.308;2023-04-03T01:16:14;13.20;71.70
37658;DHT22;23500;53.268;8.308;2023-04-03T01:18:41;13.20;70.90
37658;DHT22;23500;53.268;8.308;2023-04-03T01:24:37;13.20;70.90
37658;DHT22;23500;53.268;8.308;2023-04-03T01:26:32;13.20;71.10
37658;DHT22;23500;53.268;8.308;2023-04-03T01:28:59;13.20;70.90
37658;DHT22;23500;53.268;8.308;2023-04-03T01:33:51;13.20;71.10
37658;DHT22;23500;53.268;8.308;2023-04-03T01:36:25;13.20;71.00
37658;DHT22;23500;53.268;8.308;2023-04-03T01:38:53;13.20;71.10
37658;DHT22;23500;53.268;8.308;2023-04-03T01:41:19;13.20;71.10
37658;DHT22;23500;53.268;8.308;2023-04-03T01:43:47;13.20;71.00
37658;DHT22;23500;53.268;8.308;2023-04-03T01:46:13;13.20;71.10
37658;DHT22;23500;53.268;8.308;2023-04-03T01:48:39;13.10;71.10
37658;DHT22;23500;53.268;8.308;2023-04-03T01:51:05;13.10;70.80
37658;DHT22;23500;53.268;8.308;2023-04-03T01:53:30;13.10;70.80
37658;DHT22;23500;53.268;8.308;2023-04-03T01:55:56;13.10;70.60
37658;DHT22;23500;53.268;8.308;2023-04-03T01:58:22;13.10;70.60
37658;DHT22;23500;53.268;8.308;2023-04-03T02:00:47;13.10;70.60
37658;DHT22;23500;53.268;8.308;2023-04-03T02:03:13;13.10;70.70
37658;DHT22;23500;53.268;8.308;2023-04-03T02:05:40;13.10;71.00
37658;DHT22;23500;53.268;8.308;2023-04-03T02:08:06;13.10;70.60
37658;DHT22;23500;53.268;8.308;2023-04-03T02:10:32;13.10;70.60
37658;DHT22;23500;53.268;8.308;2023-04-03T02:12:58;13.10;70.50
37658;DHT22;23500;53.268;8.308;2023-04-03T02:15:23;13.10;70.70
37658;DHT22;23500;53.268;8.308;2023-04-03T02:17:49;13.10;70.90
37658;DHT22;23500;53.268;8.308;2023-04-03T02:20:15;13.10;71.10
37658;DHT22;23500;53.268;8.308;2023-04-03T02:22:41;13.00;70.90
37658;DHT22;23500;53.268;8.308;2023-04-03T02:25:06;13.10;71.00
37658;DHT22;23500;53.268;8.308;2023-04-03T02:27:32;13.10;71.00
37658;DHT22;23500;53.268;8.308;2023-04-03T02:29:58;13.00;70.80
37658;DHT22;23500;53.268;8.308;2023-04-03T02:32:23;13.00;71.20
37658;DHT22;23500;53.268;8.308;2023-04-03T02:34:49;13.00;71.50
37658;DHT22;23500;53.268;8.308;2023-04-03T02:37:15;13.00;71.30
37658;DHT22;23500;53.268;8.308;2023-04-03T02:39:41;13.00;71.20
37658;DHT22;23500;53.268;8.308;2023-04-03T02:42:06;13.00;71.30
37658;DHT22;23500;53.268;8.308;2023-04-03T02:44:32;13.00;71.30
37658;DHT22;23500;53.268;8.308;2023-04-03T02:46:58;13.00;71.50
37658;DHT22;23500;53.268;8.308;2023-04-03T02:49:24;13.00;71.30
37658;DHT22;23500;53.268;8.308;2023-04-03T02:51:49;13.00;71.40
37658;DHT22;23500;53.268;8.308;2023-04-03T02:54:16;13.00;71.60
37658;DHT22;23500;53.268;8.308;2023-04-03T02:56:42;13.00;71.50
37658;DHT22;23500;53.268;8.308;2023-04-03T02:59:08;13.00;71.70
37658;DHT22;23500;53.268;8.308;2023-04-03T03:01:33;13.00;71.80
37658;DHT22;23500;53.268;8.308;2023-04-03T03:03:59;13.00;71.80
37658;DHT22;23500;53.268;8.308;2023-04-03T03:06:26;13.00;71.80
37658;DHT22;23500;53.268;8.308;2023-04-03T03:08:52;13.00;71.80
37658;DHT22;23500;53.268;8.308;2023-04-03T03:11:17;13.00;71.70
37658;DHT22;23500;53.268;8.308;2023-04-03T03:13:43;13.00;71.80
37658;DHT22;23500;53.268;8.308;2023-04-03T03:16:09;13.00;71.70
37658;DHT22;23500;53.268;8.308;2023-04-03T03:18:35;13.00;71.80
37658;DHT22;23500;53.268;8.308;2023-04-03T03:21:01;13.00;71.80
37658;DHT22;23500;53.268;8.308;2023-04-03T03:23:29;13.00;71.90
37658;DHT22;23500;53.268;8.308;2023-04-03T03:25:57;13.00;71.80
37658;DHT22;23500;53.268;8.308;2023-04-03T03:28:23;13.00;71.80
37658;DHT22;23500;53.268;8.308;2023-04-03T03:30:49;13.00;71.80
37658;DHT22;23500;53.268;8.308;2023-04-03T03:33:14;13.00;71.90
37658;DHT22;23500;53.268;8.308;2023-04-03T03:35:41;12.90;71.70
37658;DHT22;23500;53.268;8.308;2023-04-03T03:38:07;12.90;71.80
37658;DHT22;23500;53.268;8.308;2023-04-03T03:40:32;12.90;71.70
37658;DHT22;23500;53.268;8.308;2023-04-03T03:42:58;12.90;71.90
37658;DHT22;23500;53.268;8.308;2023-04-03T03:45:23;12.90;71.90
37658;DHT22;23500;53.268;8.308;2023-04-03T03:47:50;12.90;71.80
37658;DHT22;23500;53.268;8.308;2023-04-03T03:50:15;12.90;71.80
37658;DHT22;23500;53.268;8.308;2023-04-03T03:52:41;12.90;71.90
37658;DHT22;23500;53.268;8.308;2023-04-03T03:55:07;12.90;71.90
37658;DHT22;23500;53.268;8.308;2023-04-03T03:57:33;12.90;71.80
37658;DHT22;23500;53.268;8.308;2023-04-03T03:59:59;12.90;72.00
37658;DHT22;23500;53.268;8.308;2023-04-03T04:02:24;12.90;71.70
37658;DHT22;23500;53.268;8.308;2023-04-03T04:04:50;12.90;72.00
37658;DHT22;23500;53.268;8.308;2023-04-03T04:07:16;12.90;72.00
37658;DHT22;23500;53.268;8.308;2023-04-03T04:09:41;12.90;71.90
37658;DHT22;23500;53.268;8.308;2023-04-03T04:12:07;12.90;71.90
37658;DHT22;23500;53.268;8.308;2023-04-03T04:14:32;12.90;71.90
37658;DHT22;23500;53.268;8.308;2023-04-03T04:16:58;12.90;72.00
37658;DHT22;23500;53.268;8.308;2023-04-03T04:19:24;12.90;72.00
37658;DHT22;23500;53.268;8.308;2023-04-03T04:21:50;12.90;72.20
37658;DHT22;23500;53.268;8.308;2023-04-03T04:24:15;12.90;72.10
37658;DHT22;23500;53.268;8.308;2023-04-03T04:26:41;12.90;72.00
37658;DHT22;23500;53.268;8.308;2023-04-03T04:29:09;12.80;72.00
37658;DHT22;23500;53.268;8.308;2023-04-03T04:31:35;12.80;72.20
37658;DHT22;23500;53.268;8.308;2023-04-03T04:34:01;12.80;72.00
37658;DHT22;23500;53.268;8.308;2023-04-03T04:36:26;12.80;72.20
37658;DHT22;23500;53.268;8.308;2023-04-03T04:38:52;12.80;72.20
37658;DHT22;23500;53.268;8.308;2023-04-03T04:41:20;12.80;72.10
37658;DHT22;23500;53.268;8.308;2023-04-03T04:43:48;12.80;72.10
37658;DHT22;23500;53.268;8.308;2023-04-03T04:46:13;12.80;72.10
37658;DHT22;23500;53.268;8.308;2023-04-03T04:48:39;12.90;72.10
37658;DHT22;23500;53.268;8.308;2023-04-03T04:51:06;12.80;72.00
37658;DHT22;23500;53.268;8.308;2023-04-03T04:53:31;12.80;72.10
37658;DHT22;23500;53.268;8.308;2023-04-03T04:55:57;12.80;72.00
37658;DHT22;23500;53.268;8.308;2023-04-03T04:58:23;12.80;72.40
37658;DHT22;23500;53.268;8.308;2023-04-03T05:00:48;12.80;72.00
37658;DHT22;23500;53.268;8.308;2023-04-03T05:03:14;12.80;72.00
37658;DHT22;23500;53.268;8.308;2023-04-03T05:05:40;12.80;72.80
37658;DHT22;23500;53.268;8.308;2023-04-03T05:08:06;12.80;72.20
37658;DHT22;23500;53.268;8.308;2023-04-03T05:10:33;12.80;72.10
37658;DHT22;23500;53.268;8.308;2023-04-03T05:12:59;12.80;72.10
37658;DHT22;23500;53.268;8.308;2023-04-03T05:15:25;12.80;72.20
37658;DHT22;23500;53.268;8.308;2023-04-03T05:17:50;12.80;72.20
37658;DHT22;23500;53.268;8.308;2023-04-03T05:20:16;12.80;72.40
37658;DHT22;23500;53.268;8.308;2023-04-03T05:22:42;12.90;72.30
37658;DHT22;23500;53.268;8.308;2023-04-03T05:25:08;12.90;72.20
37658;DHT22;23500;53.268;8.308;2023-04-03T05:27:34;12.90;72.20
37658;DHT22;23500;53.268;8.308;2023-04-03T05:29:59;12.90;71.90
37658;DHT22;23500;53.268;8.308;2023-04-03T05:32:25;12.90;71.80
37658;DHT22;23500;53.268;8.308;2023-04-03T05:34:53;13.00;71.90
37658;DHT22;23500;53.268;8.308;2023-04-03T05:37:18;13.00;71.80
37658;DHT22;23500;53.268;8.308;2023-04-03T05:39:44;13.10;71.90
37658;DHT22;23500;53.268;8.308;2023-04-03T05:42:10;13.10;71.70
37658;DHT22;23500;53.268;8.308;2023-04-03T05:44:37;13.20;71.50
37658;DHT22;23500;53.268;8.308;2023-04-03T05:47:03;13.30;71.20
37658;DHT22;23500;53.268;8.308;2023-04-03T05:49:28;13.40;70.80
37658;DHT22;23500;53.268;8.308;2023-04-03T05:51:54;13.50;70.30
37658;DHT22;23500;53.268;8.308;2023-04-03T05:54:30;13.70;70.20
37658;DHT22;23500;53.268;8.308;2023-04-03T05:56:56;13.80;70.20
37658;DHT22;23500;53.268;8.308;2023-04-03T05:59:21;13.90;69.60
37658;DHT22;23500;53.268;8.308;2023-04-03T06:01:47;14.00;69.70
37658;DHT22;23500;53.268;8.308;2023-04-03T06:04:14;14.10;69.20
37658;DHT22;23500;53.268;8.308;2023-04-03T06:09:10;14.10;69.00
37658;DHT22;23500;53.268;8.308;2023-04-03T06:11:36;14.10;68.70
37658;DHT22;23500;53.268;8.308;2023-04-03T06:14:02;14.20;69.00
37658;DHT22;23500;53.268;8.308;2023-04-03T06:16:28;14.20;68.80
37658;DHT22;23500;53.268;8.308;2023-04-03T06:18:54;14.20;68.80
37658;DHT22;23500;53.268;8.308;2023-04-03T06:21:20;14.20;68.60
37658;DHT22;23500;53.268;8.308;2023-04-03T06:23:46;14.30;68.60
37658;DHT22;23500;53.268;8.308;2023-04-03T06:26:11;14.30;68.60
37658;DHT22;23500;53.268;8.308;2023-04-03T06:28:37;14.30;68.60
37658;DHT22;23500;53.268;8.308;2023-04-03T06:31:03;14.30;68.60
37658;DHT22;23500;53.268;8.308;2023-04-03T06:33:28;14.20;68.50
37658;DHT22;23500;53.268;8.308;2023-04-03T06:35:58;14.20;68.70
37658;DHT22;23500;53.268;8.308;2023-04-03T06:38:24;14.30;68.90
37658;DHT22;23500;53.268;8.308;2023-04-03T06:40:49;14.30;68.60
37658;DHT22;23500;53.268;8.308;2023-04-03T06:43:15;14.30;68.80
37658;DHT22;23500;53.268;8.308;2023-04-03T06:45:41;14.30;68.70
37658;DHT22;23500;53.268;8.308;2023-04-03T06:48:06;14.40;68.80
37658;DHT22;23500;53.268;8.308;2023-04-03T06:50:32;14.40;68.60
37658;DHT22;23500;53.268;8.308;2023-04-03T06:52:58;14.40;68.60
37658;DHT22;23500;53.268;8.308;2023-04-03T06:55:23;14.50;68.70
37658;DHT22;23500;53.268;8.308;2023-04-03T06:57:49;14.50;68.50
37658;DHT22;23500;53.268;8.308;2023-04-03T07:00:15;14.50;68.20
37658;DHT22;23500;53.268;8.308;2023-04-03T07:02:41;14.60;68.40
37658;DHT22;23500;53.268;8.308;2023-04-03T07:05:07;14.60;67.30
37658;DHT22;23500;53.268;8.308;2023-04-03T07:07:34;14.70;67.80
37658;DHT22;23500;53.268;8.308;2023-04-03T07:10:00;14.70;66.90
37658;DHT22;23500;53.268;8.308;2023-04-03T07:12:26;14.80;66.80
37658;DHT22;23500;53.268;8.308;2023-04-03T07:14:51;14.90;66.30
37658;DHT22;23500;53.268;8.308;2023-04-03T07:17:17;14.90;66.20
37658;DHT22;23500;53.268;8.308;2023-04-03T07:19:43;15.00;66.60
37658;DHT22;23500;53.268;8.308;2023-04-03T07:22:08;15.00;66.00
37658;DHT22;23500;53.268;8.308;2023-04-03T07:24:34;15.10;65.80
37658;DHT22;23500;53.268;8.308;2023-04-03T07:27:01;15.20;65.40
37658;DHT22;23500;53.268;8.308;2023-04-03T07:29:27;15.30;65.00
37658;DHT22;23500;53.268;8.308;2023-04-03T07:31:54;15.30;64.90
37658;DHT22;23500;53.268;8.308;2023-04-03T07:34:21;15.40;65.10
37658;DHT22;23500;53.268;8.308;2023-04-03T07:36:46;15.50;65.40
37658;DHT22;23500;53.268;8.308;2023-04-03T07:39:12;15.50;65.00
37658;DHT22;23500;53.268;8.308;2023-04-03T07:41:38;15.50;64.60
37658;DHT22;23500;53.268;8.308;2023-04-03T07:44:04;15.60;65.00
37658;DHT22;23500;53.268;8.308;2023-04-03T07:46:31;15.60;65.30
37658;DHT22;23500;53.268;8.308;2023-04-03T07:48:56;15.70;64.40
37658;DHT22;23500;53.268;8.308;2023-04-03T07:51:22;15.70;65.00
37658;DHT22;23500;53.268;8.308;2023-04-03T07:53:49;15.80;65.20
37658;DHT22;23500;53.268;8.308;2023-04-03T07:56:16;15.80;64.90
37658;DHT22;23500;53.268;8.308;2023-04-03T07:58:42;15.90;65.20
37658;DHT22;23500;53.268;8.308;2023-04-03T08:01:08;15.90;65.30
37658;DHT22;23500;53.268;8.308;2023-04-03T08:03:33;15.90;65.20
37658;DHT22;23500;53.268;8.308;2023-04-03T08:06:04;15.90;64.60
37658;DHT22;23500;53.268;8.308;2023-04-03T08:08:30;16.00;64.70
37658;DHT22;23500;53.268;8.308;2023-04-03T08:10:59;16.00;64.90
37658;DHT22;23500;53.268;8.308;2023-04-03T08:13:25;16.00;64.80
37658;DHT22;23500;53.268;8.308;2023-04-03T08:15:52;16.00;64.70
37658;DHT22;23500;53.268;8.308;2023-04-03T08:18:17;16.00;64.10
37658;DHT22;23500;53.268;8.308;2023-04-03T08:20:46;16.00;64.00
37658;DHT22;23500;53.268;8.308;2023-04-03T08:23:12;16.00;64.20
37658;DHT22;23500;53.268;8.308;2023-04-03T08:25:41;16.00;64.10
37658;DHT22;23500;53.268;8.308;2023-04-03T08:28:07;16.00;64.40
37658;DHT22;23500;53.268;8.308;2023-04-03T08:30:33;16.00;64.10
37658;DHT22;23500;53.268;8.308;2023-04-03T08:33:03;16.00;63.90
37658;DHT22;23500;53.268;8.308;2023-04-03T08:35:29;16.00;64.00
37658;DHT22;23500;53.268;8.308;2023-04-03T08:37:55;16.00;63.10
37658;DHT22;23500;53.268;8.308;2023-04-03T08:40:22;16.00;63.60
37658;DHT22;23500;53.268;8.308;2023-04-03T08:43:43;16.00;64.10
37658;DHT22;23500;53.268;8.308;2023-04-03T08:45:55;15.90;63.70
37658;DHT22;23500;53.268;8.308;2023-04-03T08:48:31;15.90;64.50
37658;DHT22;23500;53.268;8.308;2023-04-03T08:51:02;15.90;63.70
37658;DHT22;23500;53.268;8.308;2023-04-03T08:53:33;15.90;64.00
37658;DHT22;23500;53.268;8.308;2023-04-03T08:56:08;15.80;63.80
37658;DHT22;23500;53.268;8.308;2023-04-03T08:58:46;15.80;63.40
37658;DHT22;23500;53.268;8.308;2023-04-03T09:01:35;15.80;64.00
37658;DHT22;23500;53.268;8.308;2023-04-03T09:04:09;15.70;65.00
37658;DHT22;23500;53.268;8.308;2023-04-03T09:06:36;15.70;64.60
37658;DHT22;23500;53.268;8.308;2023-04-03T09:12:06;15.50;64.80
37658;DHT22;23500;53.268;8.308;2023-04-03T09:17:46;15.40;65.40
37658;DHT22;23500;53.268;8.308;2023-04-03T09:22:55;15.30;66.20
37658;DHT22;23500;53.268;8.308;2023-04-03T09:25:27;15.20;66.10
37658;DHT22;23500;53.268;8.308;2023-04-03T09:27:55;15.20;66.40
37658;DHT22;23500;53.268;8.308;2023-04-03T09:30:23;15.20;66.20
37658;DHT22;23500;53.268;8.308;2023-04-03T09:32:52;15.10;66.70
37658;DHT22;23500;53.268;8.308;2023-04-03T09:37:51;15.10;64.70
37658;DHT22;23500;53.268;8.308;2023-04-03T09:40:30;15.10;64.60
37658;DHT22;23500;53.268;8.308;2023-04-03T09:42:59;15.10;66.10
37658;DHT22;23500;53.268;8.308;2023-04-03T09:45:35;15.10;64.90
37658;DHT22;23500;53.268;8.308;2023-04-03T09:51:00;15.00;66.20
37658;DHT22;23500;53.268;8.308;2023-04-03T09:55:58;15.00;65.70
37658;DHT22;23500;53.268;8.308;2023-04-03T09:58:30;15.00;65.40
37658;DHT22;23500;53.268;8.308;2023-04-03T10:01:00;15.00;65.60
37658;DHT22;23500;53.268;8.308;2023-04-03T10:03:36;15.00;64.40
37658;DHT22;23500;53.268;8.308;2023-04-03T10:06:24;15.00;66.10
37658;DHT22;23500;53.268;8.308;2023-04-03T10:09:00;15.00;66.70
37658;DHT22;23500;53.268;8.308;2023-04-03T10:11:30;15.00;65.60
37658;DHT22;23500;53.268;8.308;2023-04-03T10:13:58;14.90;63.30
37658;DHT22;23500;53.268;8.308;2023-04-03T10:16:41;14.90;65.10
37658;DHT22;23500;53.268;8.308;2023-04-03T10:21:50;14.90;66.60
37658;DHT22;23500;53.268;8.308;2023-04-03T10:24:19;14.90;65.50
37658;DHT22;23500;53.268;8.308;2023-04-03T10:31:53;14.90;65.50
37658;DHT22;23500;53.268;8.308;2023-04-03T10:34:35;14.90;64.50
37658;DHT22;23500;53.268;8.308;2023-04-03T10:37:21;14.90;65.20
37658;DHT22;23500;53.268;8.308;2023-04-03T10:40:15;14.90;64.90
37658;DHT22;23500;53.268;8.308;2023-04-03T10:43:06;14.90;65.20
37658;DHT22;23500;53.268;8.308;2023-04-03T10:46:19;14.90;64.10
37658;DHT22;23500;53.268;8.308;2023-04-03T10:48:53;14.80;64.70
37658;DHT22;23500;53.268;8.308;2023-04-03T10:51:41;14.80;62.40
37658;DHT22;23500;53.268;8.308;2023-04-03T10:54:25;14.80;65.60
37658;DHT22;23500;53.268;8.308;2023-04-03T10:56:57;14.80;62.90
37658;DHT22;23500;53.268;8.308;2023-04-03T10:59:33;14.80;62.90
37658;DHT22;23500;53.268;8.308;2023-04-03T11:04:34;14.80;62.90
37658;DHT22;23500;53.268;8.308;2023-04-03T11:10:05;14.80;64.50
37658;DHT22;23500;53.268;8.308;2023-04-03T11:12:52;14.80;62.10
37658;DHT22;23500;53.268;8.308;2023-04-03T11:15:23;14.80;64.10
37658;DHT22;23500;53.268;8.308;2023-04-03T11:18:04;14.80;65.10
37658;DHT22;23500;53.268;8.308;2023-04-03T11:20:33;14.80;65.30
37658;DHT22;23500;53.268;8.308;2023-04-03T11:23:03;14.80;65.50
37658;DHT22;23500;53.268;8.308;2023-04-03T11:25:34;14.80;64.30
37658;DHT22;23500;53.268;8.308;2023-04-03T11:28:06;14.80;64.70
37658;DHT22;23500;53.268;8.308;2023-04-03T11:33:20;14.80;65.80
37658;DHT22;23500;53.268;8.308;2023-04-03T11:35:52;14.80;64.80
37658;DHT22;23500;53.268;8.308;2023-04-03T11:38:31;14.80;65.20
37658;DHT22;23500;53.268;8.308;2023-04-03T11:41:03;14.80;62.20
37658;DHT22;23500;53.268;8.308;2023-04-03T11:43:31;14.80;63.70
37658;DHT22;23500;53.268;8.308;2023-04-03T11:45:58;14.80;61.70
37658;DHT22;23500;53.268;8.308;2023-04-03T11:50:55;14.80;64.60
37658;DHT22;23500;53.268;8.308;2023-04-03T11:53:37;14.80;60.40
37658;DHT22;23500;53.268;8.308;2023-04-03T11:58:35;14.80;61.30
37658;DHT22;23500;53.268;8.308;2023-04-03T12:01:08;14.80;63.90
37658;DHT22;23500;53.268;8.308;2023-04-03T12:03:57;14.80;60.90
37658;DHT22;23500;53.268;8.308;2023-04-03T12:08:57;14.80;62.00
37658;DHT22;23500;53.268;8.308;2023-04-03T12:11:25;14.80;60.80
37658;DHT22;23500;53.268;8.308;2023-04-03T12:17:02;14.70;60.70
37658;DHT22;23500;53.268;8.308;2023-04-03T12:29:33;14.70;61.50
37658;DHT22;23500;53.268;8.308;2023-04-03T12:37:50;14.80;63.90
37658;DHT22;23500;53.268;8.308;2023-04-03T12:48:27;14.80;62.30
37658;DHT22;23500;53.268;8.308;2023-04-03T12:50:54;14.80;59.10
37658;DHT22;23500;53.268;8.308;2023-04-03T12:53:35;14.80;59.90
37658;DHT22;23500;53.268;8.308;2023-04-03T12:56:22;14.80;64.20
37658;DHT22;23500;53.268;8.308;2023-04-03T12:58:48;14.80;62.70
37658;DHT22;23500;53.268;8.308;2023-04-03T13:01:17;14.80;63.10
37658;DHT22;23500;53.268;8.308;2023-04-03T13:03:47;14.80;64.70
37658;DHT22;23500;53.268;8.308;2023-04-03T13:06:23;14.80;63.20
37658;DHT22;23500;53.268;8.308;2023-04-03T13:08:54;14.90;63.20
37658;DHT22;23500;53.268;8.308;2023-04-03T13:11:24;14.90;63.50
37658;DHT22;23500;53.268;8.308;2023-04-03T13:14:05;14.90;61.90
37658;DHT22;23500;53.268;8.308;2023-04-03T13:16:31;14.90;64.40
37658;DHT22;23500;53.268;8.308;2023-04-03T13:18:59;14.90;62.50
37658;DHT22;23500;53.268;8.308;2023-04-03T13:21:27;14.90;65.10
37658;DHT22;23500;53.268;8.308;2023-04-03T13:23:57;14.90;63.80
37658;DHT22;23500;53.268;8.308;2023-04-03T13:26:26;15.00;62.80
37658;DHT22;23500;53.268;8.308;2023-04-03T13:28:56;14.90;63.90
37658;DHT22;23500;53.268;8.308;2023-04-03T13:31:27;15.00;65.70
37658;DHT22;23500;53.268;8.308;2023-04-03T13:34:02;15.00;65.70
37658;DHT22;23500;53.268;8.308;2023-04-03T13:36:36;15.00;64.40
37658;DHT22;23500;53.268;8.308;2023-04-03T13:39:04;15.00;62.90
37658;DHT22;23500;53.268;8.308;2023-04-03T13:41:39;15.10;61.20
37658;DHT22;23500;53.268;8.308;2023-04-03T13:46:56;15.10;64.90
37658;DHT22;23500;53.268;8.308;2023-04-03T13:51:53;15.20;63.20
37658;DHT22;23500;53.268;8.308;2023-04-03T13:54:24;15.20;61.30
37658;DHT22;23500;53.268;8.308;2023-04-03T13:56:57;15.20;63.10
37658;DHT22;23500;53.268;8.308;2023-04-03T13:59:32;15.10;63.90
37658;DHT22;23500;53.268;8.308;2023-04-03T14:04:48;15.10;64.10
37658;DHT22;23500;53.268;8.308;2023-04-03T14:07:16;15.00;64.00
37658;DHT22;23500;53.268;8.308;2023-04-03T14:09:46;15.00;61.90
37658;DHT22;23500;53.268;8.308;2023-04-03T14:12:37;15.00;63.80
37658;DHT22;23500;53.268;8.308;2023-04-03T14:15:05;15.00;64.30
37658;DHT22;23500;53.268;8.308;2023-04-03T14:17:33;15.00;65.20
37658;DHT22;23500;53.268;8.308;2023-04-03T14:19:59;15.00;64.20
37658;DHT22;23500;53.268;8.308;2023-04-03T14:22:32;15.00;64.50
37658;DHT22;23500;53.268;8.308;2023-04-03T14:24:58;15.00;65.20
37658;DHT22;23500;53.268;8.308;2023-04-03T14:27:30;15.00;63.50
37658;DHT22;23500;53.268;8.308;2023-04-03T14:29:58;15.00;63.70
37658;DHT22;23500;53.268;8.308;2023-04-03T14:32:25;15.00;64.70
37658;DHT22;23500;53.268;8.308;2023-04-03T14:34:51;15.00;61.20
37658;DHT22;23500;53.268;8.308;2023-04-03T14:37:24;15.00;61.00
37658;DHT22;23500;53.268;8.308;2023-04-03T14:39:52;15.00;63.20
37658;DHT22;23500;53.268;8.308;2023-04-03T14:42:30;15.00;62.90
37658;DHT22;23500;53.268;8.308;2023-04-03T14:44:57;15.00;63.30
37658;DHT22;23500;53.268;8.308;2023-04-03T14:47:26;15.00;62.70
37658;DHT22;23500;53.268;8.308;2023-04-03T14:49:53;15.00;63.90
37658;DHT22;23500;53.268;8.308;2023-04-03T14:52:22;15.00;64.00
37658;DHT22;23500;53.268;8.308;2023-04-03T14:54:49;15.00;65.30
37658;DHT22;23500;53.268;8.308;2023-04-03T14:57:16;15.00;65.10
37658;DHT22;23500;53.268;8.308;2023-04-03T14:59:43;15.00;64.70
37658;DHT22;23500;53.268;8.308;2023-04-03T15:05:02;15.00;65.60
37658;DHT22;23500;53.268;8.308;2023-04-03T15:07:32;15.00;64.70
37658;DHT22;23500;53.268;8.308;2023-04-03T15:10:01;15.00;64.80
37658;DHT22;23500;53.268;8.308;2023-04-03T15:12:27;15.00;65.80
37658;DHT22;23500;53.268;8.308;2023-04-03T15:14:52;15.00;64.90
37658;DHT22;23500;53.268;8.308;2023-04-03T15:17:21;15.00;65.80
37658;DHT22;23500;53.268;8.308;2023-04-03T15:19:48;15.00;65.60
37658;DHT22;23500;53.268;8.308;2023-04-03T15:22:18;15.00;64.90
37658;DHT22;23500;53.268;8.308;2023-04-03T15:24:45;15.00;65.40
37658;DHT22;23500;53.268;8.308;2023-04-03T15:27:12;14.90;63.70
37658;DHT22;23500;53.268;8.308;2023-04-03T15:29:39;14.90;63.70
37658;DHT22;23500;53.268;8.308;2023-04-03T15:32:06;14.90;62.50
37658;DHT22;23500;53.268;8.308;2023-04-03T15:34:32;14.90;64.60
37658;DHT22;23500;53.268;8.308;2023-04-03T15:36:58;14.90;65.40
37658;DHT22;23500;53.268;8.308;2023-04-03T15:39:25;14.90;64.70
37658;DHT22;23500;53.268;8.308;2023-04-03T15:41:51;14.90;66.10
37658;DHT22;23500;53.268;8.308;2023-04-03T15:44:17;14.90;65.50
37658;DHT22;23500;53.268;8.308;2023-04-03T15:46:45;14.90;65.80
37658;DHT22;23500;53.268;8.308;2023-04-03T15:49:11;14.90;65.90
37658;DHT22;23500;53.268;8.308;2023-04-03T15:51:37;14.90;65.90
37658;DHT22;23500;53.268;8.308;2023-04-03T15:54:03;14.90;66.70
37658;DHT22;23500;53.268;8.308;2023-04-03T15:56:29;14.90;66.30
37658;DHT22;23500;53.268;8.308;2023-04-03T15:58:54;14.90;65.10
37658;DHT22;23500;53.268;8.308;2023-04-03T16:01:20;14.90;65.50
37658;DHT22;23500;53.268;8.308;2023-04-03T16:03:46;14.90;65.50
37658;DHT22;23500;53.268;8.308;2023-04-03T16:06:16;14.90;64.40
37658;DHT22;23500;53.268;8.308;2023-04-03T16:08:44;14.90;65.70
37658;DHT22;23500;53.268;8.308;2023-04-03T16:11:11;14.90;66.10
37658;DHT22;23500;53.268;8.308;2023-04-03T16:13:37;14.90;65.40
37658;DHT22;23500;53.268;8.308;2023-04-03T16:16:03;14.90;65.30
37658;DHT22;23500;53.268;8.308;2023-04-03T16:18:30;14.80;65.50
37658;DHT22;23500;53.268;8.308;2023-04-03T16:20:56;14.90;65.70
37658;DHT22;23500;53.268;8.308;2023-04-03T16:23:23;14.80;66.00
37658;DHT22;23500;53.268;8.308;2023-04-03T16:25:48;14.80;67.20
37658;DHT22;23500;53.268;8.308;2023-04-03T16:28:15;14.90;67.50
37658;DHT22;23500;53.268;8.308;2023-04-03T16:30:46;14.80;66.80
37658;DHT22;23500;53.268;8.308;2023-04-03T16:33:12;14.90;67.20
37658;DHT22;23500;53.268;8.308;2023-04-03T16:35:39;14.80;67.10
37658;DHT22;23500;53.268;8.308;2023-04-03T16:38:05;14.90;65.00
37658;DHT22;23500;53.268;8.308;2023-04-03T16:40:30;14.80;66.20
37658;DHT22;23500;53.268;8.308;2023-04-03T16:42:56;14.80;67.00
37658;DHT22;23500;53.268;8.308;2023-04-03T16:45:22;14.80;66.60
37658;DHT22;23500;53.268;8.308;2023-04-03T16:47:47;14.80;67.20
37658;DHT22;23500;53.268;8.308;2023-04-03T16:50:13;14.80;67.40
37658;DHT22;23500;53.268;8.308;2023-04-03T16:52:39;14.80;67.10
37658;DHT22;23500;53.268;8.308;2023-04-03T16:55:05;14.80;67.50
37658;DHT22;23500;53.268;8.308;2023-04-03T16:57:31;14.80;68.10
37658;DHT22;23500;53.268;8.308;2023-04-03T16:59:56;14.80;67.90
37658;DHT22;23500;53.268;8.308;2023-04-03T17:02:23;14.80;67.90